Es ist keine erhöhte Aufmerksamkeit aufgrund des Wetters notwendig.    Es gibt keine Warnungen.
Webcam Vorhersage DWD Regenradar Wetterlage NRW Blitze Wind GFS-Modell
webcam


Kleve - Düffelward SSO more information Kleve - Düffelward SSO


Goch more information Goch


Weitere Templates dieser Seite und andere Webseiten:

Meteotemplate

Awekas - Template

weather34 - Template

Wetter im Erzgebirge


te
World Weather Websites
Bo-Rox Wetter Topsites List
 

METAR-Meldungen aus der Umgebung

   
EDLV - Goch
Aktualisierung: 22-10-2019 18:20
Klar  
Klar  
   Wind: SSW 5.6 km/h
Wind: SSW 5.6 km/h
Temperatur: 14°C
Taupunkt: 11°C
Luftfeuchte: 82%
Luftdruck: 1023 hPa
Sichtbarkeit: More than 10 km
Bewölkung: Klar
EDLV 221620Z 20003KT CAVOK 14/11 Q1023
EDLV - Emmerich
Aktualisierung: 22-10-2019 18:20
Klar  
Klar  
   Wind: SSW 5.6 km/h
Wind: SSW 5.6 km/h
Temperatur: 14°C
Taupunkt: 11°C
Luftfeuchte: 82%
Luftdruck: 1023 hPa
Sichtbarkeit: More than 10 km
Bewölkung: Klar
EDLV 221620Z 20003KT CAVOK 14/11 Q1023
EHDL - Nijmegen
Aktualisierung: 22-10-2019 18:25
Stark bewölkt  
Stark bewölkt  
   Wind: WSW 11.1 km/h
Wind: WSW 11.1 km/h
Temperatur: 12°C
Taupunkt: 10°C
Luftfeuchte: 88%
Luftdruck: 1023 hPa
Bewölkt: Stark bewölkt
Sichtbarkeit: More than 10 km
Bewölkung: Teilweise bewölkt 14000 ft,
Stark bewölkt 36000 ft
EHDL 221625Z AUTO 24006KT 200V270 9999 SCT140 BKN360 12/10 Q1023 BLU
EHDL - Arnhem
Aktualisierung: 22-10-2019 18:25
Stark bewölkt  
Stark bewölkt  
   Wind: WSW 11.1 km/h
Wind: WSW 11.1 km/h
Temperatur: 12°C
Taupunkt: 10°C
Luftfeuchte: 88%
Luftdruck: 1023 hPa
Bewölkt: Stark bewölkt
Sichtbarkeit: More than 10 km
Bewölkung: Teilweise bewölkt 14000 ft,
Stark bewölkt 36000 ft
EHDL 221625Z AUTO 24006KT 200V270 9999 SCT140 BKN360 12/10 Q1023 BLU
EDLV - Kalkar
Aktualisierung: 22-10-2019 18:20
Klar  
Klar  
   Wind: SSW 5.6 km/h
Wind: SSW 5.6 km/h
Temperatur: 14°C
Taupunkt: 11°C
Luftfeuchte: 82%
Luftdruck: 1023 hPa
Sichtbarkeit: More than 10 km
Bewölkung: Klar
EDLV 221620Z 20003KT CAVOK 14/11 Q1023
 

Script entwickelt von  Saratoga-weather.org Angepasst für das Template von  Weerstation Leuven

Sie finden Wetter-Infos dieser Station auch auf:

UK Metoffice

European Weather Network

WeatherCloud

Weather Underground

Germany Weather Network

AWEKAS

Neuwetter

Wettersektor

Von uns verwendete Ausrüstung:

Wetterstation
Davis Vantage Pro2

Wetterprogramm
Meteobridge

WetterComputer
Computer

Davis Vantage Pro2

Meteobridge

Computer